Time;durP1;ratioP1;P1;durP2;ratioP2;P2;SDS_P1;SDS_P2;PMS_P1;PMS_P2;Temp;Humidity;BMP_temperature;BMP_pressure;BME280_temperature;BME280_humidity;BME280_pressure;Samples;Min_cycle;Max_cycle;Signal;HPM_P1;HPM_P2
2022/09/20 00:01:34;;;;;;;2.67;1.00;;;20.30;62.20;;;;;;5029408;28;20485;-58
2022/09/20 00:04:07;;;;;;;4.78;1.40;;;20.30;62.20;;;;;;5047834;28;20017;-58
2022/09/20 00:06:33;;;;;;;1.65;0.95;;;20.20;62.20;;;;;;5047315;28;20033;-58
2022/09/20 00:09:01;;;;;;;2.22;1.13;;;20.20;62.20;;;;;;5042738;28;20087;-58
2022/09/20 00:11:29;;;;;;;2.65;1.13;;;20.20;62.20;;;;;;5047385;28;20017;-58
2022/09/20 00:13:56;;;;;;;2.70;1.10;;;20.20;62.20;;;;;;5047926;28;20016;-58
2022/09/20 00:16:39;;;;;;;1.38;0.80;;;20.20;62.20;;;;;;5047849;28;20036;-58
2022/09/20 00:19:08;;;;;;;3.70;1.10;;;20.20;62.20;;;;;;5047348;28;20405;-58
2022/09/20 00:21:35;;;;;;;2.47;1.08;;;20.20;62.30;;;;;;5047408;28;20037;-58
2022/09/20 00:24:01;;;;;;;1.67;0.90;;;20.20;62.20;;;;;;5046564;28;20025;-58
2022/09/20 00:26:28;;;;;;;1.90;1.20;;;20.20;62.30;;;;;;5044601;28;20133;-58
2022/09/20 00:28:58;;;;;;;4.65;1.10;;;20.20;62.30;;;;;;5045890;28;20024;-58
2022/09/20 00:31:26;;;;;;;3.30;1.17;;;20.20;62.30;;;;;;5048434;28;20065;-58
2022/09/20 00:36:41;;;;;;;2.22;1.15;;;20.20;62.30;;;;;;5045831;28;20043;-58
2022/09/20 00:39:10;;;;;;;1.45;1.00;;;20.10;62.30;;;;;;5045582;28;20059;-58
2022/09/20 00:41:37;;;;;;;2.03;1.02;;;20.10;62.30;;;;;;5046680;28;20033;-58
2022/09/20 00:44:42;;;;;;;2.05;0.90;;;20.10;62.30;;;;;;5045712;28;20108;-58
2022/09/20 00:47:32;;;;;;;1.88;1.00;;;20.10;62.30;;;;;;5047128;28;20057;-58
2022/09/20 00:50:07;;;;;;;2.60;1.10;;;20.10;62.30;;;;;;5045466;28;20021;-58
2022/09/20 00:52:34;;;;;;;1.23;0.80;;;20.10;62.30;;;;;;5045825;28;20032;-58
2022/09/20 00:55:00;;;;;;;1.10;0.98;;;20.10;62.30;;;;;;5030222;28;20045;-58
2022/09/20 00:57:26;;;;;;;2.05;1.08;;;20.10;62.30;;;;;;5030343;28;20136;-58
2022/09/20 00:59:57;;;;;;;3.03;1.00;;;20.10;62.40;;;;;;5046414;28;20158;-58
2022/09/20 01:02:26;;;;;;;1.60;0.82;;;20.10;62.30;;;;;;5043432;28;20033;-58
2022/09/20 01:04:52;;;;;;;3.22;0.90;;;20.10;62.30;;;;;;5044354;28;20479;-58
2022/09/20 01:07:21;;;;;;;2.00;1.00;;;20.00;62.20;;;;;;5041013;28;20150;-58
2022/09/20 01:09:47;;;;;;;2.03;0.90;;;20.00;62.30;;;;;;5046349;28;20032;-58
2022/09/20 01:12:15;;;;;;;3.03;0.90;;;20.00;62.30;;;;;;5046065;28;20029;-58
2022/09/20 01:14:43;;;;;;;1.58;0.80;;;20.00;62.30;;;;;;5046683;28;20036;-58
2022/09/20 01:17:09;;;;;;;2.47;1.10;;;20.00;62.30;;;;;;5043088;28;20032;-58
2022/09/20 01:20:00;;;;;;;2.47;1.10;;;20.00;62.30;;;;;;5045014;28;20106;-58
2022/09/20 01:22:35;;;;;;;2.97;1.00;;;20.00;62.30;;;;;;5045665;28;20392;-58
2022/09/20 01:25:38;;;;;;;1.75;0.90;;;20.00;62.30;;;;;;5045983;28;20029;-58
2022/09/20 01:28:04;;;;;;;1.73;0.90;;;20.00;62.30;;;;;;5041697;28;20017;-58
2022/09/20 01:30:52;;;;;;;2.10;0.82;;;20.00;62.30;;;;;;5045406;28;20044;-58
2022/09/20 01:33:19;;;;;;;2.95;1.17;;;20.00;62.30;;;;;;5027396;28;20061;-58
2022/09/20 01:35:47;;;;;;;2.38;0.90;;;20.00;62.30;;;;;;5045221;28;20040;-58
2022/09/20 01:38:22;;;;;;;1.75;1.00;;;19.90;62.30;;;;;;5045244;28;20025;-58
2022/09/20 01:41:36;;;;;;;1.38;0.85;;;20.00;62.40;;;;;;5046096;28;20101;-58
2022/09/20 01:44:22;;;;;;;2.05;0.90;;;20.00;62.30;;;;;;5037172;28;20140;-58
2022/09/20 01:46:53;;;;;;;2.20;0.95;;;19.90;62.30;;;;;;5045987;28;20024;-58
2022/09/20 01:49:40;;;;;;;2.10;1.10;;;19.90;62.30;;;;;;5041680;28;20262;-58
2022/09/20 01:52:36;;;;;;;1.90;1.05;;;19.90;62.30;;;;;;5029572;28;20029;-58
2022/09/20 01:55:21;;;;;;;2.45;0.98;;;19.90;62.30;;;;;;5044918;28;20041;-58
2022/09/20 01:58:20;;;;;;;2.55;1.10;;;19.90;62.40;;;;;;5045244;28;20108;-58
2022/09/20 02:01:08;;;;;;;2.40;1.00;;;19.90;62.40;;;;;;5045098;28;20036;-58
2022/09/20 02:03:52;;;;;;;2.25;1.10;;;19.90;62.40;;;;;;5046359;28;20493;-58
2022/09/20 02:06:38;;;;;;;1.10;0.93;;;19.90;62.30;;;;;;5042466;28;20397;-58
2022/09/20 02:09:04;;;;;;;1.75;1.00;;;19.90;62.30;;;;;;5043730;28;20096;-58
2022/09/20 02:11:50;;;;;;;1.90;0.82;;;19.90;62.40;;;;;;5044789;28;20171;-58
2022/09/20 02:14:25;;;;;;;1.60;0.90;;;19.80;62.30;;;;;;5043873;28;20017;-58
2022/09/20 02:17:30;;;;;;;2.50;0.90;;;19.90;62.40;;;;;;5045570;28;20033;-58
2022/09/20 02:20:29;;;;;;;2.70;1.05;;;19.90;62.40;;;;;;5044613;28;20032;-58
2022/09/20 02:23:16;;;;;;;1.70;1.00;;;19.90;62.40;;;;;;5012783;28;20525;-58
2022/09/20 02:26:24;;;;;;;2.90;1.10;;;19.80;62.30;;;;;;5014853;28;20037;-58
2022/09/20 02:29:04;;;;;;;1.67;0.90;;;19.80;62.30;;;;;;4943613;28;20043;-58
2022/09/20 02:31:54;;;;;;;1.67;1.08;;;19.80;62.40;;;;;;4936239;28;20091;-58
2022/09/20 02:34:19;;;;;;;1.27;0.82;;;19.80;62.40;;;;;;4939668;28;20055;-58
2022/09/20 02:37:17;;;;;;;1.20;1.00;;;19.80;62.40;;;;;;4940045;28;20123;-58
2022/09/20 02:40:28;;;;;;;2.35;1.00;;;19.80;62.40;;;;;;4943188;28;20039;-58
2022/09/20 02:43:20;;;;;;;1.98;0.90;;;19.80;62.40;;;;;;4930032;29;20047;-58
2022/09/20 02:46:00;;;;;;;1.55;0.90;;;19.80;62.30;;;;;;4930431;29;20052;-58
2022/09/20 02:49:03;;;;;;;2.22;0.90;;;19.80;62.40;;;;;;4909981;29;20127;-58
2022/09/20 02:52:02;;;;;;;1.83;1.00;;;19.80;62.50;;;;;;4888057;29;20131;-58
2022/09/20 02:54:48;;;;;;;1.17;0.90;;;19.80;62.40;;;;;;4895165;29;20048;-58
2022/09/20 02:57:26;;;;;;;1.55;0.80;;;19.80;62.50;;;;;;4889998;29;20561;-58
2022/09/20 02:59:53;;;;;;;1.00;0.90;;;19.70;62.40;;;;;;4864283;29;20499;-58
2022/09/20 03:02:27;;;;;;;0.88;0.80;;;19.70;62.40;;;;;;4855107;29;20045;-58
2022/09/20 03:05:05;;;;;;;1.95;0.82;;;19.70;62.40;;;;;;4860055;29;20044;-58
2022/09/20 03:07:40;;;;;;;2.92;1.02;;;19.70;62.50;;;;;;4907451;29;20044;-58
2022/09/20 03:10:05;;;;;;;;;;;19.70;62.50;;;;;;4891439;29;20052;-58
2022/09/20 03:12:43;;;;;;;1.58;0.90;;;19.70;62.40;;;;;;4891508;29;19916;-58
2022/09/20 03:15:21;;;;;;;3.30;0.70;;;19.70;62.40;;;;;;4889671;29;20040;-58
2022/09/20 03:17:51;;;;;;;1.52;1.02;;;19.70;62.50;;;;;;4891297;29;20178;-58
2022/09/20 03:20:30;;;;;;;1.70;1.00;;;19.70;62.40;;;;;;4926555;28;20558;-58
2022/09/20 03:23:17;;;;;;;1.83;0.90;;;19.70;62.50;;;;;;4954099;28;20086;-58
2022/09/20 03:25:46;;;;;;;1.00;0.90;;;19.70;62.60;;;;;;4957404;28;20035;-58
2022/09/20 03:28:30;;;;;;;2.60;0.90;;;19.70;62.40;;;;;;4978376;28;20041;-58
2022/09/20 03:31:10;;;;;;;1.50;0.90;;;19.70;62.50;;;;;;5048453;28;20099;-58
2022/09/20 03:33:45;;;;;;;0.93;0.80;;;19.70;62.40;;;;;;5047907;28;20091;-58
2022/09/20 03:36:38;;;;;;;1.48;1.10;;;19.70;62.50;;;;;;5046855;28;20500;-58
2022/09/20 03:39:30;;;;;;;1.30;1.00;;;19.60;62.40;;;;;;5047011;28;20029;-58
2022/09/20 03:42:38;;;;;;;1.15;0.90;;;19.70;62.50;;;;;;5047199;28;20029;-58
2022/09/20 03:45:22;;;;;;;2.35;1.08;;;19.70;62.50;;;;;;5046125;28;20602;-58
2022/09/20 03:48:12;;;;;;;1.70;1.00;;;19.60;63.50;;;;;;5047733;28;20508;-58
2022/09/20 03:50:53;;;;;;;1.45;1.00;;;19.60;62.40;;;;;;5046838;28;20087;-58
2022/09/20 03:53:25;;;;;;;2.47;1.20;;;19.60;62.50;;;;;;5060675;28;20049;-58
2022/09/20 03:56:12;;;;;;;1.50;1.00;;;19.60;62.40;;;;;;5048113;28;20561;-58
2022/09/20 03:59:03;;;;;;;1.88;1.02;;;19.60;62.50;;;;;;5046835;28;20068;-58
2022/09/20 04:01:56;;;;;;;1.05;0.93;;;19.60;62.40;;;;;;5024767;28;20095;-58
2022/09/20 04:04:48;;;;;;;1.77;1.02;;;19.60;62.40;;;;;;5025385;28;20040;-58
2022/09/20 04:07:23;;;;;;;1.98;1.02;;;19.60;62.50;;;;;;5022956;28;20044;-58
2022/09/20 04:10:03;;;;;;;2.67;0.95;;;19.60;62.50;;;;;;5022285;28;20040;-58
2022/09/20 04:12:55;;;;;;;2.70;1.20;;;19.60;62.50;;;;;;5006603;28;20041;-58
2022/09/20 04:15:40;;;;;;;1.40;1.00;;;19.60;62.40;;;;;;5019168;28;20038;-58
2022/09/20 04:18:51;;;;;;;2.03;0.93;;;19.60;62.40;;;;;;5025835;28;20409;-58
2022/09/20 04:21:53;;;;;;;0.98;0.88;;;19.60;62.50;;;;;;5016167;28;20498;-58
2022/09/20 04:24:32;;;;;;;1.77;1.00;;;19.60;62.50;;;;;;4982745;28;20037;-58
2022/09/20 04:27:12;;;;;;;1.65;1.00;;;19.50;62.40;;;;;;5023886;28;20040;-58
2022/09/20 04:30:29;;;;;;;2.95;0.93;;;19.50;62.40;;;;;;5006327;28;20045;-58
2022/09/20 04:33:00;;;;;;;1.90;1.02;;;19.50;62.50;;;;;;5024255;28;20083;-57
2022/09/20 04:38:34;;;;;;;1.40;0.90;;;19.50;62.40;;;;;;5015764;28;20410;-58
2022/09/20 04:41:27;;;;;;;1.60;1.00;;;19.50;62.40;;;;;;5046297;28;20029;-58
2022/09/20 04:44:26;;;;;;;1.33;0.82;;;19.50;62.60;;;;;;5045630;28;20182;-58
2022/09/20 04:47:20;;;;;;;2.70;1.02;;;19.50;62.40;;;;;;5041759;28;20063;-58
2022/09/20 04:50:09;;;;;;;1.33;0.80;;;19.50;62.50;;;;;;5044980;28;20076;-58
2022/09/20 04:52:52;;;;;;;1.38;0.90;;;19.50;62.50;;;;;;5056730;28;20060;-58
2022/09/20 04:55:28;;;;;;;2.20;1.20;;;19.50;62.50;;;;;;5042898;28;20045;-58
2022/09/20 04:58:26;;;;;;;2.35;1.05;;;19.50;62.50;;;;;;5043414;28;20163;-58
2022/09/20 05:01:18;;;;;;;1.42;0.85;;;19.40;62.50;;;;;;5037852;28;20042;-58
2022/09/20 05:04:11;;;;;;;1.10;1.00;;;19.40;62.40;;;;;;5041870;28;20021;-58
2022/09/20 05:07:06;;;;;;;2.75;1.10;;;19.40;62.40;;;;;;5038352;28;20041;-58
2022/09/20 05:09:43;;;;;;;3.60;0.90;;;19.40;63.10;;;;;;5039494;28;20052;-58
2022/09/20 05:12:41;;;;;;;2.33;1.00;;;19.50;63.00;;;;;;5039496;28;20559;-58
2022/09/20 05:15:19;;;;;;;3.20;1.30;;;19.50;63.00;;;;;;5041938;28;20048;-58
2022/09/20 05:18:10;;;;;;;4.03;1.33;;;19.40;63.30;;;;;;5043001;28;20072;-59
2022/09/20 05:20:53;;;;;;;3.03;1.15;;;19.50;63.60;;;;;;5046341;28;20029;-59
2022/09/20 05:23:43;;;;;;;1.85;1.10;;;19.50;63.60;;;;;;5042187;28;20100;-59
2022/09/20 05:26:37;;;;;;;5.95;1.30;;;19.50;63.70;;;;;;5044116;28;20021;-58
2022/09/20 05:29:41;;;;;;;2.85;1.23;;;19.50;63.60;;;;;;5067272;28;20029;-59
2022/09/20 05:32:43;;;;;;;5.28;1.15;;;19.50;63.80;;;;;;5001339;28;20053;-60
2022/09/20 05:35:29;;;;;;;5.35;1.55;;;19.50;63.80;;;;;;5003846;28;20042;-60
2022/09/20 05:38:18;;;;;;;5.95;1.20;;;19.50;63.90;;;;;;4989205;28;20022;-59
2022/09/20 05:41:03;;;;;;;4.10;1.15;;;19.50;63.90;;;;;;5005049;28;20033;-59
2022/09/20 05:43:32;;;;;;;3.72;1.20;;;19.50;63.90;;;;;;5004560;28;20038;-59
2022/09/20 05:46:16;;;;;;;3.95;1.48;;;19.50;63.90;;;;;;5004726;28;20080;-59
2022/09/20 05:49:06;;;;;;;5.78;1.50;;;19.40;63.90;;;;;;5005480;28;20053;-59
2022/09/20 05:51:46;;;;;;;7.25;1.40;;;19.40;64.10;;;;;;5004585;28;20034;-59
2022/09/20 05:54:49;;;;;;;8.07;1.83;;;19.40;64.00;;;;;;4988549;28;20054;-59
2022/09/20 05:57:27;;;;;;;4.82;1.35;;;19.40;64.10;;;;;;5004505;28;20114;-59
2022/09/20 06:00:20;;;;;;;3.65;1.35;;;19.40;64.00;;;;;;4985847;28;20032;-59
2022/09/20 06:03:10;;;;;;;3.90;1.40;;;19.40;64.10;;;;;;4984497;28;20387;-59
2022/09/20 06:05:57;;;;;;;4.97;1.35;;;19.40;64.00;;;;;;5003976;28;20026;-59
2022/09/20 06:08:50;;;;;;;3.70;1.30;;;19.40;64.00;;;;;;5017739;28;20098;-59
2022/09/20 06:11:22;;;;;;;5.05;1.50;;;19.40;64.00;;;;;;5045457;28;20040;-59
2022/09/20 06:14:14;;;;;;;4.93;1.27;;;19.40;64.00;;;;;;5045563;28;20107;-59
2022/09/20 06:17:22;;;;;;;5.88;1.38;;;19.40;64.10;;;;;;5045568;28;20131;-59
2022/09/20 06:20:26;;;;;;;4.93;1.33;;;19.40;64.00;;;;;;5045055;28;20025;-59
2022/09/20 06:22:58;;;;;;;3.65;1.40;;;19.30;64.00;;;;;;5018724;28;20497;-59
2022/09/20 06:25:30;;;;;;;3.88;1.33;;;19.40;64.00;;;;;;5024343;28;20033;-60
2022/09/20 06:28:18;;;;;;;3.63;1.10;;;19.30;63.90;;;;;;5004945;28;20028;-59
2022/09/20 06:30:48;;;;;;;3.65;1.40;;;19.30;63.90;;;;;;5021921;28;20041;-59
2022/09/20 06:33:21;;;;;;;6.00;1.42;;;19.40;64.00;;;;;;5002151;28;20029;-59
2022/09/20 06:41:25;;;;;;;3.63;1.30;;;19.30;63.90;;;;;;5019318;28;20096;-58
2022/09/20 06:41:39;;;;;;;5.15;1.30;;;19.30;64.00;;;;;;5020088;28;20036;-59
2022/09/20 06:44:05;;;;;;;3.83;1.20;;;19.30;63.90;;;;;;5032515;28;20056;-59
2022/09/20 06:46:37;;;;;;;5.22;1.33;;;19.30;63.90;;;;;;5032649;28;20026;-59
2022/09/20 06:49:03;;;;;;;4.78;1.30;;;19.30;63.80;;;;;;5032730;28;20028;-59
2022/09/20 06:51:34;;;;;;;2.35;1.05;;;19.30;63.90;;;;;;5032407;28;20045;-59
2022/09/20 06:54:01;;;;;;;4.40;1.27;;;19.30;63.90;;;;;;5032744;28;20056;-58
2022/09/20 06:56:29;;;;;;;3.58;1.40;;;19.30;63.90;;;;;;5023866;28;20045;-59
2022/09/20 06:58:56;;;;;;;4.72;1.45;;;19.30;63.80;;;;;;5001037;28;20026;-58
2022/09/20 07:01:26;;;;;;;2.25;1.05;;;19.30;63.80;;;;;;4994705;28;20096;-59
2022/09/20 07:03:52;;;;;;;4.82;1.27;;;19.30;63.80;;;;;;4998213;28;20022;-59
2022/09/20 07:06:18;;;;;;;5.45;1.77;;;19.30;63.80;;;;;;4996350;28;20042;-59
2022/09/20 07:08:45;;;;;;;2.78;1.20;;;19.30;63.80;;;;;;4993793;28;20525;-59
2022/09/20 07:11:15;;;;;;;2.80;1.10;;;19.30;63.80;;;;;;4991526;28;20030;-59
2022/09/20 07:13:42;;;;;;;5.22;1.10;;;19.30;63.80;;;;;;4994154;28;20391;-59
2022/09/20 07:16:13;;;;;;;2.42;1.10;;;19.30;63.80;;;;;;4999983;28;20034;-59
2022/09/20 07:18:40;;;;;;;4.97;1.30;;;19.30;63.70;;;;;;4996663;28;20506;-59
2022/09/20 07:21:13;;;;;;;2.22;1.20;;;19.30;63.70;;;;;;4985432;28;20034;-59
2022/09/20 07:23:39;;;;;;;3.50;1.27;;;19.30;63.80;;;;;;4998120;28;20117;-58
2022/09/20 07:26:05;;;;;;;4.18;1.30;;;19.30;63.80;;;;;;5000700;28;20574;-59
2022/09/20 07:28:32;;;;;;;4.53;1.20;;;19.30;63.70;;;;;;5004906;28;20422;-59
2022/09/20 07:30:58;;;;;;;5.03;1.40;;;19.30;63.70;;;;;;4982181;28;20027;-59
2022/09/20 07:33:24;;;;;;;4.28;1.35;;;19.30;63.70;;;;;;5008197;28;20032;-59
2022/09/20 07:35:54;;;;;;;2.63;1.20;;;19.30;63.70;;;;;;4995640;28;20526;-59
2022/09/20 07:38:24;;;;;;;4.40;1.48;;;19.30;63.70;;;;;;4996803;28;20026;-58
2022/09/20 07:40:55;;;;;;;3.13;1.30;;;19.30;63.60;;;;;;5000038;28;20031;-59
2022/09/20 07:43:23;;;;;;;4.65;1.40;;;19.30;63.60;;;;;;5001604;28;20036;-58
2022/09/20 07:45:54;;;;;;;4.85;1.35;;;19.30;63.60;;;;;;4997270;28;20490;-59
2022/09/20 07:48:34;;;;;;;2.80;1.35;;;19.30;63.60;;;;;;5000062;28;20042;-58
2022/09/20 07:51:06;;;;;;;3.13;1.20;;;19.30;63.60;;;;;;5005969;28;20041;-59
2022/09/20 07:53:32;;;;;;;2.50;1.08;;;19.30;63.50;;;;;;5006935;28;20041;-59
2022/09/20 07:56:17;;;;;;;2.83;1.30;;;19.30;63.50;;;;;;5047692;28;20060;-58
2022/09/20 07:58:44;;;;;;;3.13;1.20;;;19.30;63.50;;;;;;5047204;28;20041;-58
2022/09/20 08:01:12;;;;;;;4.13;1.33;;;19.30;63.50;;;;;;5048022;28;20025;-59
2022/09/20 08:03:38;;;;;;;5.88;1.40;;;19.30;63.50;;;;;;5047813;28;20032;-59
2022/09/20 08:06:06;;;;;;;3.10;1.10;;;19.30;63.50;;;;;;5048578;28;20391;-58
2022/09/20 08:08:33;;;;;;;2.63;1.20;;;19.40;63.50;;;;;;5047016;28;20492;-59
2022/09/20 08:11:10;;;;;;;4.53;1.52;;;19.30;63.50;;;;;;5047144;28;20025;-59
2022/09/20 08:13:40;;;;;;;3.10;1.35;;;19.30;63.60;;;;;;5047924;28;20027;-59
2022/09/20 08:16:09;;;;;;;2.90;1.20;;;19.40;63.70;;;;;;5030333;28;20076;-59
2022/09/20 08:18:35;;;;;;;3.30;1.20;;;19.30;63.60;;;;;;5047620;28;20095;-59
2022/09/20 08:21:09;;;;;;;4.30;1.10;;;19.40;63.70;;;;;;5043710;28;20060;-58
2022/09/20 08:23:37;;;;;;;2.42;1.20;;;19.40;63.60;;;;;;5047679;28;20096;-59
2022/09/20 08:26:05;;;;;;;3.25;1.30;;;19.40;63.60;;;;;;5048075;28;20017;-59
2022/09/20 08:28:32;;;;;;;2.10;1.23;;;19.40;63.60;;;;;;5047834;28;20029;-59
2022/09/20 08:31:10;;;;;;;2.78;1.38;;;19.40;63.60;;;;;;5046177;28;20041;-59
2022/09/20 08:33:38;;;;;;;2.65;1.20;;;19.40;63.60;;;;;;5047586;28;20021;-59
2022/09/20 08:36:06;;;;;;;2.47;1.10;;;19.40;63.60;;;;;;5047267;28;20056;-59
2022/09/20 08:38:33;;;;;;;3.35;1.20;;;19.40;63.60;;;;;;5046896;28;20537;-59
2022/09/20 08:41:24;;;;;;;3.40;1.27;;;19.40;63.60;;;;;;5048734;28;20124;-59
2022/09/20 08:44:00;;;;;;;2.75;1.30;;;19.40;63.50;;;;;;5044123;28;20025;-59
2022/09/20 08:46:32;;;;;;;3.13;1.30;;;19.50;63.60;;;;;;5045896;28;20025;-59
2022/09/20 08:48:58;;;;;;;2.53;1.30;;;19.50;63.60;;;;;;5045525;28;20112;-59
2022/09/20 08:51:29;;;;;;;3.08;1.30;;;19.50;63.50;;;;;;5046368;28;20115;-58
2022/09/20 08:53:55;;;;;;;4.47;1.30;;;19.50;63.50;;;;;;5027445;28;20490;-58
2022/09/20 08:56:26;;;;;;;3.63;1.40;;;19.50;63.50;;;;;;5046694;28;20479;-58
2022/09/20 08:58:55;;;;;;;3.08;1.40;;;19.50;63.50;;;;;;5024528;28;20069;-59
2022/09/20 09:01:23;;;;;;;3.53;1.40;;;19.50;63.40;;;;;;5046943;28;20045;-59
2022/09/20 09:03:57;;;;;;;3.15;1.30;;;19.50;63.50;;;;;;5029647;28;20587;-59
2022/09/20 09:06:23;;;;;;;4.53;1.30;;;19.50;63.30;;;;;;5042452;28;20146;-59
2022/09/20 09:08:54;;;;;;;4.03;1.45;;;19.60;63.40;;;;;;5046836;28;20060;-58
2022/09/20 09:11:20;;;;;;;2.10;1.40;;;19.60;63.40;;;;;;5044782;28;20025;-59
2022/09/20 09:13:57;;;;;;;1.80;1.27;;;19.60;63.40;;;;;;5046609;28;20033;-58
2022/09/20 09:16:24;;;;;;;4.40;1.48;;;19.60;63.30;;;;;;5047425;28;20086;-59
2022/09/20 09:18:52;;;;;;;2.08;1.23;;;19.60;64.30;;;;;;5046481;28;20091;-59
2022/09/20 09:21:27;;;;;;;3.38;1.20;;;19.60;63.20;;;;;;5044494;28;20302;-59
2022/09/20 09:24:00;;;;;;;2.42;1.35;;;19.60;63.20;;;;;;5043986;28;20025;-58
2022/09/20 09:26:26;;;;;;;3.08;1.23;;;19.60;63.20;;;;;;5045706;28;20478;-59
2022/09/20 09:29:11;;;;;;;2.67;1.40;;;19.60;63.20;;;;;;5046410;28;20035;-59
2022/09/20 09:31:38;;;;;;;2.58;1.10;;;19.70;63.20;;;;;;5045562;28;20028;-58
2022/09/20 09:34:28;;;;;;;3.03;1.17;;;19.60;63.10;;;;;;5044965;28;20599;-59
2022/09/20 09:36:54;;;;;;;2.60;1.23;;;19.60;63.10;;;;;;5042233;28;20029;-59
2022/09/20 09:39:40;;;;;;;2.35;1.15;;;19.70;63.10;;;;;;5046365;28;20405;-59
2022/09/20 09:42:27;;;;;;;3.17;1.30;;;19.70;63.00;;;;;;5044701;28;20036;-58
2022/09/20 09:44:54;;;;;;;5.40;1.40;;;19.70;63.00;;;;;;5045284;28;20111;-58
2022/09/20 09:47:28;;;;;;;2.90;1.20;;;19.70;62.90;;;;;;5046864;28;20028;-59
2022/09/20 09:49:56;;;;;;;2.65;1.40;;;19.70;62.90;;;;;;5045668;28;20037;-59
2022/09/20 09:52:24;;;;;;;4.03;1.35;;;19.70;63.00;;;;;;5045933;28;20379;-59
2022/09/20 09:54:58;;;;;;;2.72;1.30;;;19.70;62.90;;;;;;5046206;28;20528;-58
2022/09/20 09:57:54;;;;;;;2.00;1.25;;;19.70;62.90;;;;;;5046278;28;20056;-59
2022/09/20 10:00:22;;;;;;;4.80;1.50;;;19.80;62.90;;;;;;5045742;28;20128;-59
2022/09/20 10:03:10;;;;;;;2.97;1.40;;;19.70;62.90;;;;;;5029503;28;20390;-58
2022/09/20 10:06:09;;;;;;;2.45;1.17;;;19.80;62.90;;;;;;5046733;28;20025;-59
2022/09/20 10:08:44;;;;;;;2.10;1.13;;;19.80;63.00;;;;;;5029735;28;20025;-58
2022/09/20 10:11:11;;;;;;;;;;;19.80;62.90;;;;;;5046386;28;20120;-59
2022/09/20 10:14:14;;;;;;;3.72;1.13;;;19.80;62.80;;;;;;5044155;28;21756;-59
2022/09/20 10:17:04;;;;;;;2.88;1.20;;;19.80;62.80;;;;;;5045179;28;20043;-59
2022/09/20 10:20:04;;;;;;;3.22;1.25;;;19.80;62.70;;;;;;5044327;28;20146;-58
2022/09/20 10:22:45;;;;;;;1.77;1.15;;;19.90;62.70;;;;;;5045078;28;20033;-59
2022/09/20 10:25:38;;;;;;;3.05;1.20;;;19.90;62.70;;;;;;5044277;28;20075;-58
2022/09/20 10:28:16;;;;;;;1.77;1.20;;;19.90;62.60;;;;;;5044725;28;20048;-59
2022/09/20 10:31:04;;;;;;;2.58;1.13;;;19.90;62.70;;;;;;5046513;28;20079;-59
2022/09/20 10:33:43;;;;;;;3.50;1.27;;;20.00;62.60;;;;;;5041323;28;20025;-59
2022/09/20 10:36:17;;;;;;;1.70;1.17;;;20.00;62.60;;;;;;5043102;28;20060;-58
2022/09/20 10:38:59;;;;;;;2.77;1.17;;;20.00;62.50;;;;;;5044817;28;20029;-59
2022/09/20 10:44:50;;;;;;;1.65;1.10;;;20.10;62.40;;;;;;5043913;28;20036;-59
2022/09/20 10:47:19;;;;;;;1.63;1.30;;;20.10;62.40;;;;;;5044946;28;20047;-59
2022/09/20 10:50:03;;;;;;;2.05;1.10;;;20.20;62.40;;;;;;5049269;28;20401;-59
2022/09/20 10:52:52;;;;;;;2.92;1.20;;;20.20;62.30;;;;;;5048841;28;20025;-58
2022/09/20 10:55:34;;;;;;;2.42;1.02;;;20.20;62.30;;;;;;5048476;28;20053;-58
2022/09/20 10:58:29;;;;;;;2.58;1.20;;;20.20;62.20;;;;;;5047944;28;20027;-59
2022/09/20 11:01:17;;;;;;;1.95;1.15;;;20.30;62.20;;;;;;5032519;28;20094;-59
2022/09/20 11:04:34;;;;;;;2.97;1.20;;;20.30;62.10;;;;;;5049294;28;20029;-59
2022/09/20 11:07:32;;;;;;;2.65;1.10;;;20.30;62.10;;;;;;5016603;28;20514;-58
2022/09/20 11:10:27;;;;;;;2.35;1.40;;;20.40;62.10;;;;;;5002748;28;20085;-59
2022/09/20 11:12:59;;;;;;;2.50;1.30;;;20.30;62.00;;;;;;5015875;28;20128;-59
2022/09/20 11:16:00;;;;;;;3.67;1.40;;;20.40;62.10;;;;;;5001168;28;20059;-59
2022/09/20 11:18:54;;;;;;;2.05;1.05;;;20.40;62.10;;;;;;5000061;28;20041;-59
2022/09/20 11:21:27;;;;;;;2.42;1.20;;;20.40;62.10;;;;;;5002061;28;20057;-58
2022/09/20 11:24:26;;;;;;;2.05;1.10;;;20.40;61.90;;;;;;5015337;28;20068;-58
2022/09/20 11:26:54;;;;;;;1.88;1.10;;;20.40;61.90;;;;;;5005731;28;20041;-59
2022/09/20 11:29:35;;;;;;;2.85;1.30;;;20.50;61.90;;;;;;4999559;28;20067;-59
2022/09/20 11:32:23;;;;;;;2.08;1.23;;;20.50;61.80;;;;;;5001980;28;20034;-59
2022/09/20 11:34:52;;;;;;;1.88;1.10;;;20.50;61.70;;;;;;5009006;28;20461;-59
2022/09/20 11:37:18;;;;;;;2.00;1.17;;;20.60;61.70;;;;;;5019137;28;20021;-59
2022/09/20 11:39:53;;;;;;;2.10;1.10;;;20.60;61.70;;;;;;5016637;28;20056;-59
2022/09/20 11:42:22;;;;;;;2.03;1.25;;;20.60;61.70;;;;;;5029815;28;20044;-58
2022/09/20 11:44:47;;;;;;;2.25;1.15;;;20.60;61.70;;;;;;5029113;28;20026;-59
2022/09/20 11:47:19;;;;;;;2.17;1.10;;;20.60;61.80;;;;;;5047387;28;20032;-58
2022/09/20 11:49:54;;;;;;;2.53;1.08;;;20.60;61.70;;;;;;5047420;28;20120;-59
2022/09/20 11:52:27;;;;;;;;;;;20.70;61.60;;;;;;5047202;28;20025;-59
2022/09/20 11:55:00;;;;;;;1.70;1.08;;;20.70;61.50;;;;;;5047353;28;19935;-59
2022/09/20 11:57:25;;;;;;;2.17;1.10;;;20.70;61.50;;;;;;5029341;28;20063;-59
2022/09/20 11:59:54;;;;;;;1.20;1.02;;;20.80;61.50;;;;;;5046494;28;20037;-59
2022/09/20 12:02:50;;;;;;;2.42;1.30;;;20.80;61.40;;;;;;5048931;28;20102;-59
2022/09/20 12:05:34;;;;;;;;;;;20.90;61.40;;;;;;5042639;28;20120;-59
2022/09/20 12:08:06;;;;;;;1.83;1.00;;;20.90;61.30;;;;;;5049258;28;20054;-59
2022/09/20 12:10:36;;;;;;;2.28;1.10;;;20.90;61.10;;;;;;5047281;28;20048;-59
2022/09/20 12:13:06;;;;;;;2.33;1.30;;;21.00;61.20;;;;;;5046154;28;20059;-59
2022/09/20 12:15:40;;;;;;;2.65;1.10;;;21.00;62.00;;;;;;5046399;28;20041;-59
2022/09/20 12:18:29;;;;;;;2.70;1.30;;;21.10;61.00;;;;;;5032121;28;20472;-59
2022/09/20 12:20:56;;;;;;;2.70;1.10;;;21.10;61.00;;;;;;5046746;28;20050;-59
2022/09/20 12:23:39;;;;;;;1.88;1.20;;;21.10;61.00;;;;;;5047604;28;20082;-59
2022/09/20 12:26:12;;;;;;;2.35;1.10;;;21.10;60.80;;;;;;5040979;28;20070;-59
2022/09/20 12:28:39;;;;;;;1.42;1.08;;;21.10;60.90;;;;;;5046276;28;20036;-59
2022/09/20 12:31:20;;;;;;;3.55;1.23;;;21.10;60.80;;;;;;5029948;28;20489;-59
2022/09/20 12:34:14;;;;;;;1.70;0.82;;;21.10;60.80;;;;;;5044711;28;20099;-59
2022/09/20 12:36:52;;;;;;;2.22;1.00;;;21.20;60.90;;;;;;5047202;28;20421;-59
2022/09/20 12:39:26;;;;;;;0.90;0.80;;;21.20;60.80;;;;;;5043850;28;20037;-59
2022/09/20 12:41:55;;;;;;;1.83;1.17;;;21.20;60.70;;;;;;5046263;28;20025;-59
2022/09/20 12:44:40;;;;;;;1.83;1.00;;;21.20;60.70;;;;;;5047059;28;20099;-59
2022/09/20 12:47:23;;;;;;;1.02;0.90;;;21.20;60.60;;;;;;5047791;28;20075;-59
2022/09/20 12:55:26;;;;;;;1.63;1.00;;;21.30;60.60;;;;;;5045591;28;20498;-59
2022/09/20 12:57:57;;;;;;;1.50;1.00;;;21.40;60.50;;;;;;5046769;28;20120;-59
2022/09/20 13:00:39;;;;;;;3.00;1.13;;;21.50;60.40;;;;;;5046167;28;20024;-59
2022/09/20 13:03:15;;;;;;;1.25;0.98;;;21.50;60.30;;;;;;5045650;28;20048;-59
2022/09/20 13:05:45;;;;;;;2.05;1.00;;;21.50;60.30;;;;;;5043902;28;20033;-59
2022/09/20 13:08:16;;;;;;;2.58;1.10;;;21.60;60.20;;;;;;5029577;28;22033;-59
2022/09/20 13:10:48;;;;;;;1.35;1.00;;;21.70;60.10;;;;;;5046909;28;20041;-59
2022/09/20 13:13:27;;;;;;;1.95;1.05;;;21.70;60.10;;;;;;5044128;28;20028;-59
2022/09/20 13:15:53;;;;;;;1.80;0.93;;;21.70;60.00;;;;;;5044989;28;20037;-59
2022/09/20 13:18:19;;;;;;;2.45;1.02;;;21.80;60.00;;;;;;5045818;28;20033;-59
2022/09/20 13:20:46;;;;;;;2.05;1.00;;;21.80;60.00;;;;;;5046011;28;20040;-59
2022/09/20 13:23:23;;;;;;;1.00;0.90;;;21.80;59.90;;;;;;5045965;28;20468;-59
2022/09/20 13:25:50;;;;;;;2.25;1.10;;;21.90;59.90;;;;;;5044884;28;20029;-59
2022/09/20 13:28:27;;;;;;;1.33;0.90;;;21.90;59.80;;;;;;5029513;28;20103;-59
2022/09/20 13:31:30;;;;;;;1.52;1.00;;;21.80;59.80;;;;;;5045824;28;20044;-59
2022/09/20 13:34:19;;;;;;;1.95;1.20;;;21.80;59.80;;;;;;5044784;28;20036;-59
2022/09/20 13:36:45;;;;;;;1.02;0.93;;;21.80;59.90;;;;;;5042036;28;20078;-59
2022/09/20 13:39:34;;;;;;;2.40;0.88;;;21.80;59.90;;;;;;5045665;28;20029;-59
2022/09/20 13:42:07;;;;;;;1.27;0.98;;;21.80;59.90;;;;;;5044421;28;20079;-59
2022/09/20 13:44:46;;;;;;;1.13;1.02;;;21.80;60.00;;;;;;5051066;28;20025;-59
2022/09/20 13:47:22;;;;;;;1.52;1.00;;;21.80;59.90;;;;;;5044623;28;20033;-59
2022/09/20 13:49:49;;;;;;;1.58;0.90;;;21.80;59.90;;;;;;5046433;28;20025;-59
2022/09/20 13:52:26;;;;;;;1.75;1.15;;;21.80;59.90;;;;;;5046217;28;20067;-59
2022/09/20 13:54:54;;;;;;;1.33;1.00;;;21.80;60.00;;;;;;5046026;28;20515;-60
2022/09/20 13:57:26;;;;;;;1.45;0.90;;;21.80;60.00;;;;;;5045599;28;20035;-59
2022/09/20 13:59:52;;;;;;;0.90;0.80;;;21.80;60.00;;;;;;5044018;28;20746;-59
2022/09/20 14:02:31;;;;;;;1.23;1.00;;;21.90;60.00;;;;;;5046133;28;20064;-59
2022/09/20 14:05:00;;;;;;;1.33;1.00;;;21.90;60.00;;;;;;5046868;28;20025;-59